sensor_id;sensor_type;location;lat;lon;timestamp;temperature;humidity
46416;DHT22;32620;51.704;7.822;2024-02-15T00:01:55;11.90;99.90
46416;DHT22;32620;51.704;7.822;2024-02-15T00:04:21;11.90;99.90
46416;DHT22;32620;51.704;7.822;2024-02-15T00:06:46;11.90;99.90
46416;DHT22;32620;51.704;7.822;2024-02-15T00:09:12;11.90;99.90
46416;DHT22;32620;51.704;7.822;2024-02-15T00:11:38;11.90;99.90
46416;DHT22;32620;51.704;7.822;2024-02-15T00:14:05;11.90;99.90
46416;DHT22;32620;51.704;7.822;2024-02-15T00:16:30;12.00;99.90
46416;DHT22;32620;51.704;7.822;2024-02-15T00:18:56;11.90;99.90
46416;DHT22;32620;51.704;7.822;2024-02-15T00:21:22;11.90;99.90
46416;DHT22;32620;51.704;7.822;2024-02-15T00:23:48;11.90;99.90
46416;DHT22;32620;51.704;7.822;2024-02-15T00:26:14;11.90;99.90
46416;DHT22;32620;51.704;7.822;2024-02-15T00:28:42;11.90;99.90
46416;DHT22;32620;51.704;7.822;2024-02-15T00:31:08;11.90;99.90
46416;DHT22;32620;51.704;7.822;2024-02-15T00:33:33;11.90;99.90
46416;DHT22;32620;51.704;7.822;2024-02-15T00:36:00;11.90;99.90
46416;DHT22;32620;51.704;7.822;2024-02-15T00:38:27;11.90;99.90
46416;DHT22;32620;51.704;7.822;2024-02-15T00:40:52;11.90;99.90
46416;DHT22;32620;51.704;7.822;2024-02-15T00:43:18;11.90;99.90
46416;DHT22;32620;51.704;7.822;2024-02-15T00:45:45;11.90;99.90
46416;DHT22;32620;51.704;7.822;2024-02-15T00:48:11;11.90;99.90
46416;DHT22;32620;51.704;7.822;2024-02-15T00:50:36;11.90;99.90
46416;DHT22;32620;51.704;7.822;2024-02-15T00:53:02;11.90;99.90
46416;DHT22;32620;51.704;7.822;2024-02-15T00:55:28;11.80;99.90
46416;DHT22;32620;51.704;7.822;2024-02-15T00:57:53;11.90;99.90
46416;DHT22;32620;51.704;7.822;2024-02-15T01:00:19;11.90;99.90
46416;DHT22;32620;51.704;7.822;2024-02-15T01:02:45;11.90;99.90
46416;DHT22;32620;51.704;7.822;2024-02-15T01:05:11;11.80;99.90
46416;DHT22;32620;51.704;7.822;2024-02-15T01:07:37;11.90;99.90
46416;DHT22;32620;51.704;7.822;2024-02-15T01:10:02;11.90;99.90
46416;DHT22;32620;51.704;7.822;2024-02-15T01:12:28;11.90;99.90
46416;DHT22;32620;51.704;7.822;2024-02-15T01:14:54;11.80;99.90
46416;DHT22;32620;51.704;7.822;2024-02-15T01:17:21;11.90;99.90
46416;DHT22;32620;51.704;7.822;2024-02-15T01:19:47;11.80;99.90
46416;DHT22;32620;51.704;7.822;2024-02-15T01:22:13;11.90;99.90
46416;DHT22;32620;51.704;7.822;2024-02-15T01:24:38;11.90;99.90
46416;DHT22;32620;51.704;7.822;2024-02-15T01:27:04;11.90;99.90
46416;DHT22;32620;51.704;7.822;2024-02-15T01:29:31;11.90;99.90
46416;DHT22;32620;51.704;7.822;2024-02-15T01:31:56;11.90;99.90
46416;DHT22;32620;51.704;7.822;2024-02-15T01:34:22;11.80;99.90
46416;DHT22;32620;51.704;7.822;2024-02-15T01:36:48;11.90;99.90
46416;DHT22;32620;51.704;7.822;2024-02-15T01:39:15;11.90;99.90
46416;DHT22;32620;51.704;7.822;2024-02-15T01:41:47;11.90;99.90
46416;DHT22;32620;51.704;7.822;2024-02-15T01:44:14;11.90;99.90
46416;DHT22;32620;51.704;7.822;2024-02-15T01:46:40;11.90;99.90
46416;DHT22;32620;51.704;7.822;2024-02-15T01:49:06;11.90;99.90
46416;DHT22;32620;51.704;7.822;2024-02-15T01:51:33;11.90;99.90
46416;DHT22;32620;51.704;7.822;2024-02-15T01:54:01;11.90;99.90
46416;DHT22;32620;51.704;7.822;2024-02-15T01:56:28;11.90;99.90
46416;DHT22;32620;51.704;7.822;2024-02-15T01:58:54;11.90;99.90
46416;DHT22;32620;51.704;7.822;2024-02-15T02:01:20;11.90;99.90
46416;DHT22;32620;51.704;7.822;2024-02-15T02:03:47;11.90;99.90
46416;DHT22;32620;51.704;7.822;2024-02-15T02:06:13;11.90;99.90
46416;DHT22;32620;51.704;7.822;2024-02-15T02:08:39;12.00;99.90
46416;DHT22;32620;51.704;7.822;2024-02-15T02:11:05;11.90;99.90
46416;DHT22;32620;51.704;7.822;2024-02-15T02:13:31;12.00;99.90
46416;DHT22;32620;51.704;7.822;2024-02-15T02:15:56;12.00;99.90
46416;DHT22;32620;51.704;7.822;2024-02-15T02:18:22;12.00;99.90
46416;DHT22;32620;51.704;7.822;2024-02-15T02:20:50;11.90;99.90
46416;DHT22;32620;51.704;7.822;2024-02-15T02:23:17;11.90;99.90
46416;DHT22;32620;51.704;7.822;2024-02-15T02:25:44;11.90;99.90
46416;DHT22;32620;51.704;7.822;2024-02-15T02:28:12;11.90;99.90
46416;DHT22;32620;51.704;7.822;2024-02-15T02:30:38;11.90;99.90
46416;DHT22;32620;51.704;7.822;2024-02-15T02:33:11;11.90;99.90
46416;DHT22;32620;51.704;7.822;2024-02-15T02:35:36;12.00;99.90
46416;DHT22;32620;51.704;7.822;2024-02-15T02:38:02;11.90;99.90
46416;DHT22;32620;51.704;7.822;2024-02-15T02:40:28;11.90;99.90
46416;DHT22;32620;51.704;7.822;2024-02-15T02:42:55;12.00;99.90
46416;DHT22;32620;51.704;7.822;2024-02-15T02:45:22;12.00;99.90
46416;DHT22;32620;51.704;7.822;2024-02-15T02:47:49;12.00;99.90
46416;DHT22;32620;51.704;7.822;2024-02-15T02:50:15;12.00;99.90
46416;DHT22;32620;51.704;7.822;2024-02-15T02:52:41;12.00;99.90
46416;DHT22;32620;51.704;7.822;2024-02-15T02:55:07;12.00;99.90
46416;DHT22;32620;51.704;7.822;2024-02-15T02:57:35;11.90;99.90
46416;DHT22;32620;51.704;7.822;2024-02-15T03:00:04;11.90;99.90
46416;DHT22;32620;51.704;7.822;2024-02-15T03:02:34;11.90;99.90
46416;DHT22;32620;51.704;7.822;2024-02-15T03:05:03;11.90;99.90
46416;DHT22;32620;51.704;7.822;2024-02-15T03:07:28;11.90;99.90
46416;DHT22;32620;51.704;7.822;2024-02-15T03:09:54;11.90;99.90
46416;DHT22;32620;51.704;7.822;2024-02-15T03:12:19;11.90;99.90
46416;DHT22;32620;51.704;7.822;2024-02-15T03:14:45;11.90;99.90
46416;DHT22;32620;51.704;7.822;2024-02-15T03:17:11;11.90;99.90
46416;DHT22;32620;51.704;7.822;2024-02-15T03:19:36;11.90;99.90
46416;DHT22;32620;51.704;7.822;2024-02-15T03:22:02;11.90;99.90
46416;DHT22;32620;51.704;7.822;2024-02-15T03:24:27;11.90;99.90
46416;DHT22;32620;51.704;7.822;2024-02-15T03:26:53;11.80;99.90
46416;DHT22;32620;51.704;7.822;2024-02-15T03:29:21;11.80;99.90
46416;DHT22;32620;51.704;7.822;2024-02-15T03:31:48;11.80;99.90
46416;DHT22;32620;51.704;7.822;2024-02-15T03:34:14;11.80;99.90
46416;DHT22;32620;51.704;7.822;2024-02-15T03:36:41;11.80;99.90
46416;DHT22;32620;51.704;7.822;2024-02-15T03:39:07;11.80;99.90
46416;DHT22;32620;51.704;7.822;2024-02-15T03:41:33;11.70;99.90
46416;DHT22;32620;51.704;7.822;2024-02-15T03:43:59;11.80;99.90
46416;DHT22;32620;51.704;7.822;2024-02-15T03:46:25;11.80;99.90
46416;DHT22;32620;51.704;7.822;2024-02-15T03:48:53;11.70;99.90
46416;DHT22;32620;51.704;7.822;2024-02-15T03:51:19;11.70;99.90
46416;DHT22;32620;51.704;7.822;2024-02-15T03:53:45;11.80;99.90
46416;DHT22;32620;51.704;7.822;2024-02-15T03:56:14;11.70;99.90
46416;DHT22;32620;51.704;7.822;2024-02-15T03:58:39;11.70;99.90
46416;DHT22;32620;51.704;7.822;2024-02-15T04:01:05;11.70;99.90
46416;DHT22;32620;51.704;7.822;2024-02-15T04:03:32;11.70;99.90
46416;DHT22;32620;51.704;7.822;2024-02-15T04:05:59;11.70;99.90
46416;DHT22;32620;51.704;7.822;2024-02-15T04:08:25;11.70;99.90
46416;DHT22;32620;51.704;7.822;2024-02-15T04:10:51;11.70;99.90
46416;DHT22;32620;51.704;7.822;2024-02-15T04:13:17;11.70;99.90
46416;DHT22;32620;51.704;7.822;2024-02-15T04:15:43;11.70;99.90
46416;DHT22;32620;51.704;7.822;2024-02-15T04:18:09;11.70;99.90
46416;DHT22;32620;51.704;7.822;2024-02-15T04:20:36;11.70;99.90
46416;DHT22;32620;51.704;7.822;2024-02-15T04:23:02;11.60;99.90
46416;DHT22;32620;51.704;7.822;2024-02-15T04:25:27;11.60;99.90
46416;DHT22;32620;51.704;7.822;2024-02-15T04:27:53;11.60;99.90
46416;DHT22;32620;51.704;7.822;2024-02-15T04:30:19;11.60;99.90
46416;DHT22;32620;51.704;7.822;2024-02-15T04:32:45;11.60;99.90
46416;DHT22;32620;51.704;7.822;2024-02-15T04:35:12;11.60;99.90
46416;DHT22;32620;51.704;7.822;2024-02-15T04:37:38;11.70;99.90
46416;DHT22;32620;51.704;7.822;2024-02-15T04:40:04;11.60;99.90
46416;DHT22;32620;51.704;7.822;2024-02-15T04:42:35;11.60;99.90
46416;DHT22;32620;51.704;7.822;2024-02-15T04:45:05;11.70;99.90
46416;DHT22;32620;51.704;7.822;2024-02-15T04:47:34;11.60;99.90
46416;DHT22;32620;51.704;7.822;2024-02-15T04:49:59;11.60;99.90
46416;DHT22;32620;51.704;7.822;2024-02-15T04:52:25;11.60;99.90
46416;DHT22;32620;51.704;7.822;2024-02-15T04:54:51;11.60;99.90
46416;DHT22;32620;51.704;7.822;2024-02-15T04:57:16;11.50;99.90
46416;DHT22;32620;51.704;7.822;2024-02-15T04:59:43;11.50;99.90
46416;DHT22;32620;51.704;7.822;2024-02-15T05:02:12;11.50;99.90
46416;DHT22;32620;51.704;7.822;2024-02-15T05:04:38;11.50;99.90
46416;DHT22;32620;51.704;7.822;2024-02-15T05:07:08;11.50;99.90
46416;DHT22;32620;51.704;7.822;2024-02-15T05:09:33;11.50;99.90
46416;DHT22;32620;51.704;7.822;2024-02-15T05:12:00;11.60;99.90
46416;DHT22;32620;51.704;7.822;2024-02-15T05:14:28;11.50;99.90
46416;DHT22;32620;51.704;7.822;2024-02-15T05:16:53;11.50;99.90
46416;DHT22;32620;51.704;7.822;2024-02-15T05:19:19;11.50;99.90
46416;DHT22;32620;51.704;7.822;2024-02-15T05:21:46;11.50;99.90
46416;DHT22;32620;51.704;7.822;2024-02-15T05:24:13;11.50;99.90
46416;DHT22;32620;51.704;7.822;2024-02-15T05:26:39;11.50;99.90
46416;DHT22;32620;51.704;7.822;2024-02-15T05:29:05;11.50;99.90
46416;DHT22;32620;51.704;7.822;2024-02-15T05:31:31;11.50;99.90
46416;DHT22;32620;51.704;7.822;2024-02-15T05:33:57;11.60;99.90
46416;DHT22;32620;51.704;7.822;2024-02-15T05:36:23;11.60;99.90
46416;DHT22;32620;51.704;7.822;2024-02-15T05:38:52;11.60;99.90
46416;DHT22;32620;51.704;7.822;2024-02-15T05:41:19;11.60;99.90
46416;DHT22;32620;51.704;7.822;2024-02-15T05:43:46;11.60;99.90
46416;DHT22;32620;51.704;7.822;2024-02-15T05:46:14;11.60;99.90
46416;DHT22;32620;51.704;7.822;2024-02-15T05:48:40;11.60;99.90
46416;DHT22;32620;51.704;7.822;2024-02-15T05:51:07;11.60;99.90
46416;DHT22;32620;51.704;7.822;2024-02-15T05:53:34;11.60;99.90
46416;DHT22;32620;51.704;7.822;2024-02-15T05:56:02;11.60;99.90
46416;DHT22;32620;51.704;7.822;2024-02-15T05:58:30;11.50;99.90
46416;DHT22;32620;51.704;7.822;2024-02-15T06:00:55;11.60;99.90
46416;DHT22;32620;51.704;7.822;2024-02-15T06:03:29;11.50;99.90
46416;DHT22;32620;51.704;7.822;2024-02-15T06:05:57;11.50;99.90
46416;DHT22;32620;51.704;7.822;2024-02-15T06:08:24;11.50;99.90
46416;DHT22;32620;51.704;7.822;2024-02-15T06:10:51;11.50;99.90
46416;DHT22;32620;51.704;7.822;2024-02-15T06:13:18;11.50;99.90
46416;DHT22;32620;51.704;7.822;2024-02-15T06:15:43;11.50;99.90
46416;DHT22;32620;51.704;7.822;2024-02-15T06:18:11;11.50;99.90
46416;DHT22;32620;51.704;7.822;2024-02-15T06:20:40;11.50;99.90
46416;DHT22;32620;51.704;7.822;2024-02-15T06:23:06;11.50;99.90
46416;DHT22;32620;51.704;7.822;2024-02-15T06:25:33;11.50;99.90
46416;DHT22;32620;51.704;7.822;2024-02-15T06:27:59;11.40;99.90
46416;DHT22;32620;51.704;7.822;2024-02-15T06:30:28;11.40;99.90
46416;DHT22;32620;51.704;7.822;2024-02-15T06:33:14;11.50;99.90
46416;DHT22;32620;51.704;7.822;2024-02-15T06:36:04;11.50;99.90
46416;DHT22;32620;51.704;7.822;2024-02-15T06:38:49;11.50;99.90
46416;DHT22;32620;51.704;7.822;2024-02-15T06:41:35;11.60;99.90
46416;DHT22;32620;51.704;7.822;2024-02-15T06:44:00;11.60;99.90
46416;DHT22;32620;51.704;7.822;2024-02-15T06:46:26;11.70;99.90
46416;DHT22;32620;51.704;7.822;2024-02-15T06:48:52;11.70;99.90
46416;DHT22;32620;51.704;7.822;2024-02-15T06:51:18;11.70;99.90
46416;DHT22;32620;51.704;7.822;2024-02-15T06:53:44;11.70;99.90
46416;DHT22;32620;51.704;7.822;2024-02-15T06:56:10;11.70;99.90
46416;DHT22;32620;51.704;7.822;2024-02-15T06:58:36;11.80;99.90
46416;DHT22;32620;51.704;7.822;2024-02-15T07:01:02;11.80;99.90
46416;DHT22;32620;51.704;7.822;2024-02-15T07:03:28;11.80;99.90
46416;DHT22;32620;51.704;7.822;2024-02-15T07:05:57;11.80;99.90
46416;DHT22;32620;51.704;7.822;2024-02-15T07:08:23;11.90;99.90
46416;DHT22;32620;51.704;7.822;2024-02-15T07:10:50;11.90;99.90
46416;DHT22;32620;51.704;7.822;2024-02-15T07:13:17;12.00;99.90
46416;DHT22;32620;51.704;7.822;2024-02-15T07:15:43;12.00;99.90
46416;DHT22;32620;51.704;7.822;2024-02-15T07:18:09;12.00;99.90
46416;DHT22;32620;51.704;7.822;2024-02-15T07:20:37;12.00;99.90
46416;DHT22;32620;51.704;7.822;2024-02-15T07:23:03;12.00;99.90
46416;DHT22;32620;51.704;7.822;2024-02-15T07:25:29;12.00;99.90
46416;DHT22;32620;51.704;7.822;2024-02-15T07:27:55;12.00;99.90
46416;DHT22;32620;51.704;7.822;2024-02-15T07:30:22;11.90;99.90
46416;DHT22;32620;51.704;7.822;2024-02-15T07:32:49;11.90;99.90
46416;DHT22;32620;51.704;7.822;2024-02-15T07:35:15;11.90;99.90
46416;DHT22;32620;51.704;7.822;2024-02-15T07:37:57;11.90;99.90
46416;DHT22;32620;51.704;7.822;2024-02-15T07:40:26;11.90;99.90
46416;DHT22;32620;51.704;7.822;2024-02-15T07:42:56;11.90;99.90
46416;DHT22;32620;51.704;7.822;2024-02-15T07:45:22;11.90;99.90
46416;DHT22;32620;51.704;7.822;2024-02-15T07:47:48;11.90;99.90
46416;DHT22;32620;51.704;7.822;2024-02-15T07:50:17;11.90;99.90
46416;DHT22;32620;51.704;7.822;2024-02-15T07:52:46;11.90;99.90
46416;DHT22;32620;51.704;7.822;2024-02-15T07:55:12;11.90;99.90
46416;DHT22;32620;51.704;7.822;2024-02-15T07:57:37;11.90;99.90
46416;DHT22;32620;51.704;7.822;2024-02-15T08:00:04;11.90;99.90
46416;DHT22;32620;51.704;7.822;2024-02-15T08:02:37;11.90;99.90
46416;DHT22;32620;51.704;7.822;2024-02-15T08:05:06;11.90;99.90
46416;DHT22;32620;51.704;7.822;2024-02-15T08:07:43;11.90;99.90
46416;DHT22;32620;51.704;7.822;2024-02-15T08:10:11;11.90;99.90
46416;DHT22;32620;51.704;7.822;2024-02-15T08:12:42;11.90;99.90
46416;DHT22;32620;51.704;7.822;2024-02-15T08:15:09;11.90;99.90
46416;DHT22;32620;51.704;7.822;2024-02-15T08:17:39;11.90;99.90
46416;DHT22;32620;51.704;7.822;2024-02-15T08:20:08;11.90;99.90
46416;DHT22;32620;51.704;7.822;2024-02-15T08:22:35;11.90;99.90
46416;DHT22;32620;51.704;7.822;2024-02-15T08:25:00;11.90;99.90
46416;DHT22;32620;51.704;7.822;2024-02-15T08:27:26;11.90;99.90
46416;DHT22;32620;51.704;7.822;2024-02-15T08:29:52;11.90;99.90
46416;DHT22;32620;51.704;7.822;2024-02-15T08:32:19;12.00;99.90
46416;DHT22;32620;51.704;7.822;2024-02-15T08:34:45;12.00;99.90
46416;DHT22;32620;51.704;7.822;2024-02-15T08:37:13;12.00;99.90
46416;DHT22;32620;51.704;7.822;2024-02-15T08:39:39;12.10;99.90
46416;DHT22;32620;51.704;7.822;2024-02-15T08:42:05;12.10;99.90
46416;DHT22;32620;51.704;7.822;2024-02-15T08:44:30;12.10;99.90
46416;DHT22;32620;51.704;7.822;2024-02-15T08:46:56;12.10;99.90
46416;DHT22;32620;51.704;7.822;2024-02-15T08:49:22;12.20;99.90
46416;DHT22;32620;51.704;7.822;2024-02-15T08:51:47;12.20;99.90
46416;DHT22;32620;51.704;7.822;2024-02-15T08:54:13;12.30;99.90
46416;DHT22;32620;51.704;7.822;2024-02-15T08:56:38;12.30;99.90
46416;DHT22;32620;51.704;7.822;2024-02-15T08:59:04;12.30;99.90
46416;DHT22;32620;51.704;7.822;2024-02-15T09:01:30;12.40;99.90
46416;DHT22;32620;51.704;7.822;2024-02-15T09:03:56;12.40;99.90
46416;DHT22;32620;51.704;7.822;2024-02-15T09:06:21;12.40;99.90
46416;DHT22;32620;51.704;7.822;2024-02-15T09:08:48;12.40;99.90
46416;DHT22;32620;51.704;7.822;2024-02-15T09:11:13;12.40;99.90
46416;DHT22;32620;51.704;7.822;2024-02-15T09:13:39;12.40;99.90
46416;DHT22;32620;51.704;7.822;2024-02-15T09:16:05;12.40;99.90
46416;DHT22;32620;51.704;7.822;2024-02-15T09:18:31;12.40;99.90
46416;DHT22;32620;51.704;7.822;2024-02-15T09:20:58;12.40;99.90
46416;DHT22;32620;51.704;7.822;2024-02-15T09:23:25;12.40;99.90
46416;DHT22;32620;51.704;7.822;2024-02-15T09:25:50;12.50;99.90
46416;DHT22;32620;51.704;7.822;2024-02-15T09:28:18;12.50;99.90
46416;DHT22;32620;51.704;7.822;2024-02-15T09:30:51;12.50;99.90
46416;DHT22;32620;51.704;7.822;2024-02-15T09:33:18;12.50;99.90
46416;DHT22;32620;51.704;7.822;2024-02-15T09:35:44;12.60;99.90
46416;DHT22;32620;51.704;7.822;2024-02-15T09:38:10;12.70;99.90
46416;DHT22;32620;51.704;7.822;2024-02-15T09:40:35;12.70;99.90
46416;DHT22;32620;51.704;7.822;2024-02-15T09:43:01;12.80;99.90
46416;DHT22;32620;51.704;7.822;2024-02-15T09:45:27;13.00;99.90
46416;DHT22;32620;51.704;7.822;2024-02-15T09:47:53;13.00;99.90
46416;DHT22;32620;51.704;7.822;2024-02-15T09:50:19;13.00;99.90
46416;DHT22;32620;51.704;7.822;2024-02-15T09:52:50;13.10;99.90
46416;DHT22;32620;51.704;7.822;2024-02-15T09:55:16;13.00;99.90
46416;DHT22;32620;51.704;7.822;2024-02-15T09:57:43;12.90;99.90
46416;DHT22;32620;51.704;7.822;2024-02-15T10:00:10;12.90;99.90
46416;DHT22;32620;51.704;7.822;2024-02-15T10:02:41;12.80;99.90
46416;DHT22;32620;51.704;7.822;2024-02-15T10:05:10;12.80;99.90
46416;DHT22;32620;51.704;7.822;2024-02-15T10:07:41;12.70;99.90
46416;DHT22;32620;51.704;7.822;2024-02-15T10:10:23;12.70;99.90
46416;DHT22;32620;51.704;7.822;2024-02-15T10:12:49;12.60;99.90
46416;DHT22;32620;51.704;7.822;2024-02-15T10:15:38;12.60;99.90
46416;DHT22;32620;51.704;7.822;2024-02-15T10:18:05;12.60;99.90
46416;DHT22;32620;51.704;7.822;2024-02-15T10:20:34;12.50;99.90
46416;DHT22;32620;51.704;7.822;2024-02-15T10:25:39;12.60;99.90
46416;DHT22;32620;51.704;7.822;2024-02-15T10:28:06;12.60;99.90
46416;DHT22;32620;51.704;7.822;2024-02-15T10:30:34;12.70;99.90
46416;DHT22;32620;51.704;7.822;2024-02-15T10:33:01;12.70;99.90
46416;DHT22;32620;51.704;7.822;2024-02-15T10:35:27;12.80;99.90
46416;DHT22;32620;51.704;7.822;2024-02-15T10:38:05;12.80;99.90
46416;DHT22;32620;51.704;7.822;2024-02-15T10:40:33;12.80;99.90
46416;DHT22;32620;51.704;7.822;2024-02-15T10:42:59;12.90;99.90
46416;DHT22;32620;51.704;7.822;2024-02-15T10:45:27;12.90;99.90
46416;DHT22;32620;51.704;7.822;2024-02-15T10:47:54;12.90;99.90
46416;DHT22;32620;51.704;7.822;2024-02-15T10:50:20;12.90;99.90
46416;DHT22;32620;51.704;7.822;2024-02-15T10:52:55;12.90;99.90
46416;DHT22;32620;51.704;7.822;2024-02-15T10:55:29;12.90;99.90
46416;DHT22;32620;51.704;7.822;2024-02-15T10:58:01;13.00;99.90
46416;DHT22;32620;51.704;7.822;2024-02-15T11:00:29;13.00;99.90
46416;DHT22;32620;51.704;7.822;2024-02-15T11:03:04;13.00;99.90
46416;DHT22;32620;51.704;7.822;2024-02-15T11:05:33;13.00;99.90
46416;DHT22;32620;51.704;7.822;2024-02-15T11:08:02;13.10;99.90
46416;DHT22;32620;51.704;7.822;2024-02-15T11:10:30;13.10;99.90
46416;DHT22;32620;51.704;7.822;2024-02-15T11:12:56;13.10;99.90
46416;DHT22;32620;51.704;7.822;2024-02-15T11:15:45;13.10;99.90
46416;DHT22;32620;51.704;7.822;2024-02-15T11:18:46;13.10;99.90
46416;DHT22;32620;51.704;7.822;2024-02-15T11:21:15;13.20;99.90
46416;DHT22;32620;51.704;7.822;2024-02-15T11:23:41;13.30;99.90
46416;DHT22;32620;51.704;7.822;2024-02-15T11:26:09;13.30;99.90
46416;DHT22;32620;51.704;7.822;2024-02-15T11:28:37;13.40;99.90
46416;DHT22;32620;51.704;7.822;2024-02-15T11:31:07;13.50;99.90
46416;DHT22;32620;51.704;7.822;2024-02-15T11:33:33;13.50;99.90
46416;DHT22;32620;51.704;7.822;2024-02-15T11:36:03;13.60;99.90
46416;DHT22;32620;51.704;7.822;2024-02-15T11:38:30;13.80;99.90
46416;DHT22;32620;51.704;7.822;2024-02-15T11:40:59;13.80;99.90
46416;DHT22;32620;51.704;7.822;2024-02-15T11:43:46;13.80;99.90
46416;DHT22;32620;51.704;7.822;2024-02-15T11:46:16;13.90;99.90
46416;DHT22;32620;51.704;7.822;2024-02-15T11:48:46;14.00;99.90
46416;DHT22;32620;51.704;7.822;2024-02-15T11:51:25;14.00;99.90
46416;DHT22;32620;51.704;7.822;2024-02-15T11:54:07;13.90;99.90
46416;DHT22;32620;51.704;7.822;2024-02-15T11:56:50;13.90;99.90
46416;DHT22;32620;51.704;7.822;2024-02-15T11:59:20;14.10;99.90
46416;DHT22;32620;51.704;7.822;2024-02-15T12:02:05;14.20;99.90
46416;DHT22;32620;51.704;7.822;2024-02-15T12:04:51;14.30;99.90
46416;DHT22;32620;51.704;7.822;2024-02-15T12:07:36;14.40;99.90
46416;DHT22;32620;51.704;7.822;2024-02-15T12:10:22;14.40;99.90
46416;DHT22;32620;51.704;7.822;2024-02-15T12:13:08;14.40;99.90
46416;DHT22;32620;51.704;7.822;2024-02-15T12:16:00;14.40;99.90
46416;DHT22;32620;51.704;7.822;2024-02-15T12:18:46;14.30;99.90
46416;DHT22;32620;51.704;7.822;2024-02-15T12:21:21;14.30;99.90
46416;DHT22;32620;51.704;7.822;2024-02-15T12:23:48;14.30;99.90
46416;DHT22;32620;51.704;7.822;2024-02-15T12:26:19;14.30;99.90
46416;DHT22;32620;51.704;7.822;2024-02-15T12:28:50;14.30;99.90
46416;DHT22;32620;51.704;7.822;2024-02-15T12:31:16;14.40;99.90
46416;DHT22;32620;51.704;7.822;2024-02-15T12:33:42;14.50;99.90
46416;DHT22;32620;51.704;7.822;2024-02-15T12:36:08;14.50;99.90
46416;DHT22;32620;51.704;7.822;2024-02-15T12:38:34;14.50;99.90
46416;DHT22;32620;51.704;7.822;2024-02-15T12:41:16;14.60;99.90
46416;DHT22;32620;51.704;7.822;2024-02-15T12:43:43;14.50;99.90
46416;DHT22;32620;51.704;7.822;2024-02-15T12:46:09;14.50;99.90
46416;DHT22;32620;51.704;7.822;2024-02-15T12:48:34;14.60;99.90
46416;DHT22;32620;51.704;7.822;2024-02-15T12:51:13;14.60;99.90
46416;DHT22;32620;51.704;7.822;2024-02-15T12:53:40;14.60;99.90
46416;DHT22;32620;51.704;7.822;2024-02-15T12:56:07;14.60;99.90
46416;DHT22;32620;51.704;7.822;2024-02-15T12:58:34;14.70;99.90
46416;DHT22;32620;51.704;7.822;2024-02-15T13:01:00;14.80;99.90
46416;DHT22;32620;51.704;7.822;2024-02-15T13:03:27;14.80;99.90
46416;DHT22;32620;51.704;7.822;2024-02-15T13:05:52;14.90;99.90
46416;DHT22;32620;51.704;7.822;2024-02-15T13:08:18;14.90;99.90
46416;DHT22;32620;51.704;7.822;2024-02-15T13:10:45;15.00;92.70
46416;DHT22;32620;51.704;7.822;2024-02-15T13:13:11;15.10;94.20
46416;DHT22;32620;51.704;7.822;2024-02-15T13:15:40;15.20;91.40
46416;DHT22;32620;51.704;7.822;2024-02-15T13:18:06;15.30;66.30
46416;DHT22;32620;51.704;7.822;2024-02-15T13:20:35;15.20;57.40
46416;DHT22;32620;51.704;7.822;2024-02-15T13:23:05;15.40;50.80
46416;DHT22;32620;51.704;7.822;2024-02-15T13:25:37;15.50;56.70
46416;DHT22;32620;51.704;7.822;2024-02-15T13:28:05;15.50;40.00
46416;DHT22;32620;51.704;7.822;2024-02-15T13:30:31;15.60;24.00
46416;DHT22;32620;51.704;7.822;2024-02-15T13:32:56;15.60;15.60
46416;DHT22;32620;51.704;7.822;2024-02-15T13:35:22;15.70;24.50
46416;DHT22;32620;51.704;7.822;2024-02-15T13:37:51;15.80;18.10
46416;DHT22;32620;51.704;7.822;2024-02-15T13:40:21;15.80;10.40
46416;DHT22;32620;51.704;7.822;2024-02-15T13:42:50;15.90;1.00
46416;DHT22;32620;51.704;7.822;2024-02-15T13:45:20;15.80;1.00
46416;DHT22;32620;51.704;7.822;2024-02-15T13:47:49;15.80;1.00
46416;DHT22;32620;51.704;7.822;2024-02-15T13:50:16;15.80;2.30
46416;DHT22;32620;51.704;7.822;2024-02-15T13:52:42;15.70;7.30
46416;DHT22;32620;51.704;7.822;2024-02-15T13:55:10;15.70;1.00
46416;DHT22;32620;51.704;7.822;2024-02-15T13:57:38;15.70;1.00
46416;DHT22;32620;51.704;7.822;2024-02-15T14:00:04;15.60;1.00
46416;DHT22;32620;51.704;7.822;2024-02-15T14:02:31;15.70;1.00
46416;DHT22;32620;51.704;7.822;2024-02-15T14:04:57;15.60;1.00
46416;DHT22;32620;51.704;7.822;2024-02-15T14:07:22;15.60;1.00
46416;DHT22;32620;51.704;7.822;2024-02-15T14:09:48;15.50;1.00
46416;DHT22;32620;51.704;7.822;2024-02-15T14:12:14;15.50;1.00
46416;DHT22;32620;51.704;7.822;2024-02-15T14:14:41;15.60;1.00
46416;DHT22;32620;51.704;7.822;2024-02-15T14:17:06;15.50;1.00
46416;DHT22;32620;51.704;7.822;2024-02-15T14:19:32;15.50;1.00
46416;DHT22;32620;51.704;7.822;2024-02-15T14:21:57;15.50;1.00
46416;DHT22;32620;51.704;7.822;2024-02-15T14:24:23;15.50;1.00
46416;DHT22;32620;51.704;7.822;2024-02-15T14:26:49;15.50;1.00
46416;DHT22;32620;51.704;7.822;2024-02-15T14:29:14;15.50;1.00
46416;DHT22;32620;51.704;7.822;2024-02-15T14:31:41;15.50;1.00
46416;DHT22;32620;51.704;7.822;2024-02-15T14:34:26;15.50;1.00
46416;DHT22;32620;51.704;7.822;2024-02-15T14:36:52;15.50;1.00
46416;DHT22;32620;51.704;7.822;2024-02-15T14:39:18;15.50;1.00
46416;DHT22;32620;51.704;7.822;2024-02-15T14:41:44;15.50;1.00
46416;DHT22;32620;51.704;7.822;2024-02-15T14:44:10;15.50;1.00
46416;DHT22;32620;51.704;7.822;2024-02-15T14:46:37;15.50;1.00
46416;DHT22;32620;51.704;7.822;2024-02-15T14:49:03;15.40;1.00
46416;DHT22;32620;51.704;7.822;2024-02-15T14:51:30;15.40;1.00
46416;DHT22;32620;51.704;7.822;2024-02-15T14:53:57;15.40;1.00
46416;DHT22;32620;51.704;7.822;2024-02-15T14:56:24;15.40;1.00
46416;DHT22;32620;51.704;7.822;2024-02-15T14:58:49;15.40;1.00
46416;DHT22;32620;51.704;7.822;2024-02-15T15:01:15;15.40;1.00
46416;DHT22;32620;51.704;7.822;2024-02-15T15:03:40;15.40;1.00
46416;DHT22;32620;51.704;7.822;2024-02-15T15:06:08;15.40;1.00
46416;DHT22;32620;51.704;7.822;2024-02-15T15:08:54;15.40;1.00
46416;DHT22;32620;51.704;7.822;2024-02-15T15:11:39;15.30;1.00
46416;DHT22;32620;51.704;7.822;2024-02-15T15:14:25;15.30;1.00
46416;DHT22;32620;51.704;7.822;2024-02-15T15:16:50;15.30;1.00
46416;DHT22;32620;51.704;7.822;2024-02-15T15:19:16;15.30;1.00
46416;DHT22;32620;51.704;7.822;2024-02-15T15:21:41;15.30;1.00
46416;DHT22;32620;51.704;7.822;2024-02-15T15:24:08;15.20;1.00
46416;DHT22;32620;51.704;7.822;2024-02-15T15:26:35;15.10;1.00
46416;DHT22;32620;51.704;7.822;2024-02-15T15:29:01;15.10;1.00
46416;DHT22;32620;51.704;7.822;2024-02-15T15:31:27;15.10;1.00
46416;DHT22;32620;51.704;7.822;2024-02-15T15:33:55;15.00;1.00
46416;DHT22;32620;51.704;7.822;2024-02-15T15:36:21;15.00;1.00
46416;DHT22;32620;51.704;7.822;2024-02-15T15:38:47;15.00;1.00
46416;DHT22;32620;51.704;7.822;2024-02-15T15:41:13;14.90;1.00